sensor_id;sensor_type;location;lat;lon;timestamp;temperature;humidity
16976;DHT22;8604;48.148;-1.786;2022-12-07T00:00:09;2.60;99.90
16976;DHT22;8604;48.148;-1.786;2022-12-07T00:02:41;2.50;99.90
16976;DHT22;8604;48.148;-1.786;2022-12-07T00:05:13;2.50;99.90
16976;DHT22;8604;48.148;-1.786;2022-12-07T00:07:48;2.40;99.90
16976;DHT22;8604;48.148;-1.786;2022-12-07T00:10:19;2.40;99.90
16976;DHT22;8604;48.148;-1.786;2022-12-07T00:12:51;2.40;99.90
16976;DHT22;8604;48.148;-1.786;2022-12-07T00:15:25;2.40;99.90
16976;DHT22;8604;48.148;-1.786;2022-12-07T00:20:42;2.30;99.90
16976;DHT22;8604;48.148;-1.786;2022-12-07T00:23:13;2.30;99.90
16976;DHT22;8604;48.148;-1.786;2022-12-07T00:25:43;2.30;99.90
16976;DHT22;8604;48.148;-1.786;2022-12-07T00:28:22;2.20;99.90
16976;DHT22;8604;48.148;-1.786;2022-12-07T00:31:03;2.20;99.90
16976;DHT22;8604;48.148;-1.786;2022-12-07T00:33:35;2.20;99.90
16976;DHT22;8604;48.148;-1.786;2022-12-07T00:36:12;2.10;99.90
16976;DHT22;8604;48.148;-1.786;2022-12-07T00:38:55;2.00;99.90
16976;DHT22;8604;48.148;-1.786;2022-12-07T00:41:28;2.10;99.90
16976;DHT22;8604;48.148;-1.786;2022-12-07T00:44:09;2.00;99.90
16976;DHT22;8604;48.148;-1.786;2022-12-07T00:46:42;2.00;99.90
16976;DHT22;8604;48.148;-1.786;2022-12-07T00:49:13;1.90;99.90
16976;DHT22;8604;48.148;-1.786;2022-12-07T00:51:48;1.90;99.90
16976;DHT22;8604;48.148;-1.786;2022-12-07T00:54:19;1.90;99.90
16976;DHT22;8604;48.148;-1.786;2022-12-07T00:56:53;1.90;99.90
16976;DHT22;8604;48.148;-1.786;2022-12-07T00:59:25;1.90;99.90
16976;DHT22;8604;48.148;-1.786;2022-12-07T01:01:56;1.90;99.90
16976;DHT22;8604;48.148;-1.786;2022-12-07T01:04:26;1.90;99.90
16976;DHT22;8604;48.148;-1.786;2022-12-07T01:06:58;1.90;99.90
16976;DHT22;8604;48.148;-1.786;2022-12-07T01:09:28;1.90;99.90
16976;DHT22;8604;48.148;-1.786;2022-12-07T01:11:59;1.80;99.90
16976;DHT22;8604;48.148;-1.786;2022-12-07T01:14:30;1.80;99.90
16976;DHT22;8604;48.148;-1.786;2022-12-07T01:17:01;1.80;99.90
16976;DHT22;8604;48.148;-1.786;2022-12-07T01:19:34;1.80;99.90
16976;DHT22;8604;48.148;-1.786;2022-12-07T01:22:05;1.70;99.90
16976;DHT22;8604;48.148;-1.786;2022-12-07T01:24:36;1.70;99.90
16976;DHT22;8604;48.148;-1.786;2022-12-07T01:27:07;1.60;99.90
16976;DHT22;8604;48.148;-1.786;2022-12-07T01:29:40;1.60;99.90
16976;DHT22;8604;48.148;-1.786;2022-12-07T01:32:10;1.60;99.90
16976;DHT22;8604;48.148;-1.786;2022-12-07T01:34:40;1.50;99.90
16976;DHT22;8604;48.148;-1.786;2022-12-07T01:37:11;1.50;99.90
16976;DHT22;8604;48.148;-1.786;2022-12-07T01:39:41;1.40;99.90
16976;DHT22;8604;48.148;-1.786;2022-12-07T01:42:11;1.40;99.90
16976;DHT22;8604;48.148;-1.786;2022-12-07T01:47:50;1.40;99.90
16976;DHT22;8604;48.148;-1.786;2022-12-07T01:50:25;1.40;99.90
16976;DHT22;8604;48.148;-1.786;2022-12-07T01:52:57;1.30;99.90
16976;DHT22;8604;48.148;-1.786;2022-12-07T01:55:31;1.30;99.90
16976;DHT22;8604;48.148;-1.786;2022-12-07T01:58:01;1.30;99.90
16976;DHT22;8604;48.148;-1.786;2022-12-07T02:00:31;1.20;99.90
16976;DHT22;8604;48.148;-1.786;2022-12-07T02:03:07;1.30;99.90
16976;DHT22;8604;48.148;-1.786;2022-12-07T02:05:40;1.20;99.90
16976;DHT22;8604;48.148;-1.786;2022-12-07T02:08:15;1.20;99.90
16976;DHT22;8604;48.148;-1.786;2022-12-07T02:10:49;1.20;99.90
16976;DHT22;8604;48.148;-1.786;2022-12-07T02:13:27;1.20;99.90
16976;DHT22;8604;48.148;-1.786;2022-12-07T02:16:12;1.20;99.90
16976;DHT22;8604;48.148;-1.786;2022-12-07T02:21:30;1.20;99.90
16976;DHT22;8604;48.148;-1.786;2022-12-07T02:24:30;1.10;99.90
16976;DHT22;8604;48.148;-1.786;2022-12-07T02:27:40;1.20;99.90
16976;DHT22;8604;48.148;-1.786;2022-12-07T02:30:15;1.10;99.90
16976;DHT22;8604;48.148;-1.786;2022-12-07T02:32:54;1.10;99.90
16976;DHT22;8604;48.148;-1.786;2022-12-07T02:35:30;1.10;99.90
16976;DHT22;8604;48.148;-1.786;2022-12-07T02:38:10;1.10;99.90
16976;DHT22;8604;48.148;-1.786;2022-12-07T02:40:46;1.10;99.90
16976;DHT22;8604;48.148;-1.786;2022-12-07T02:43:23;1.10;99.90
16976;DHT22;8604;48.148;-1.786;2022-12-07T02:45:58;1.10;99.90
16976;DHT22;8604;48.148;-1.786;2022-12-07T02:48:32;1.10;99.90
16976;DHT22;8604;48.148;-1.786;2022-12-07T02:51:03;1.10;99.90
16976;DHT22;8604;48.148;-1.786;2022-12-07T02:53:35;1.10;99.90
16976;DHT22;8604;48.148;-1.786;2022-12-07T02:56:16;1.20;99.90
16976;DHT22;8604;48.148;-1.786;2022-12-07T02:58:57;1.10;99.90
16976;DHT22;8604;48.148;-1.786;2022-12-07T03:01:39;1.10;99.90
16976;DHT22;8604;48.148;-1.786;2022-12-07T03:04:24;1.10;99.90
16976;DHT22;8604;48.148;-1.786;2022-12-07T03:07:05;1.10;99.90
16976;DHT22;8604;48.148;-1.786;2022-12-07T03:09:44;1.10;99.90
16976;DHT22;8604;48.148;-1.786;2022-12-07T03:12:21;1.10;99.90
16976;DHT22;8604;48.148;-1.786;2022-12-07T03:15:01;1.10;99.90
16976;DHT22;8604;48.148;-1.786;2022-12-07T03:17:40;1.00;99.90
16976;DHT22;8604;48.148;-1.786;2022-12-07T03:20:19;1.10;99.90
16976;DHT22;8604;48.148;-1.786;2022-12-07T03:22:54;1.00;99.90
16976;DHT22;8604;48.148;-1.786;2022-12-07T03:25:26;1.10;99.90
16976;DHT22;8604;48.148;-1.786;2022-12-07T03:54:09;1.00;99.90
16976;DHT22;8604;48.148;-1.786;2022-12-07T03:56:43;0.90;99.90
16976;DHT22;8604;48.148;-1.786;2022-12-07T03:59:13;0.90;99.90
16976;DHT22;8604;48.148;-1.786;2022-12-07T04:01:44;0.90;99.90
16976;DHT22;8604;48.148;-1.786;2022-12-07T04:04:18;1.00;99.90
16976;DHT22;8604;48.148;-1.786;2022-12-07T04:06:49;0.90;99.90
16976;DHT22;8604;48.148;-1.786;2022-12-07T04:09:21;0.90;99.90
16976;DHT22;8604;48.148;-1.786;2022-12-07T04:11:55;1.00;99.90
16976;DHT22;8604;48.148;-1.786;2022-12-07T04:14:42;0.90;99.90
16976;DHT22;8604;48.148;-1.786;2022-12-07T04:17:16;0.90;99.90
16976;DHT22;8604;48.148;-1.786;2022-12-07T04:19:46;0.90;99.90
16976;DHT22;8604;48.148;-1.786;2022-12-07T04:22:15;0.90;99.90
16976;DHT22;8604;48.148;-1.786;2022-12-07T04:24:48;0.90;99.90
16976;DHT22;8604;48.148;-1.786;2022-12-07T04:27:16;1.00;99.90
16976;DHT22;8604;48.148;-1.786;2022-12-07T04:29:44;1.00;99.90
16976;DHT22;8604;48.148;-1.786;2022-12-07T04:32:13;0.90;99.90
16976;DHT22;8604;48.148;-1.786;2022-12-07T04:34:42;0.90;99.90
16976;DHT22;8604;48.148;-1.786;2022-12-07T04:37:10;0.90;99.90
16976;DHT22;8604;48.148;-1.786;2022-12-07T04:39:39;0.90;99.90
16976;DHT22;8604;48.148;-1.786;2022-12-07T04:42:09;0.90;99.90
16976;DHT22;8604;48.148;-1.786;2022-12-07T04:44:39;0.90;99.90
16976;DHT22;8604;48.148;-1.786;2022-12-07T04:47:08;0.90;99.90
16976;DHT22;8604;48.148;-1.786;2022-12-07T04:49:37;0.90;99.90
16976;DHT22;8604;48.148;-1.786;2022-12-07T04:52:05;0.90;99.90
16976;DHT22;8604;48.148;-1.786;2022-12-07T04:54:34;0.90;99.90
16976;DHT22;8604;48.148;-1.786;2022-12-07T04:57:03;0.90;99.90
16976;DHT22;8604;48.148;-1.786;2022-12-07T04:59:33;0.90;99.90
16976;DHT22;8604;48.148;-1.786;2022-12-07T05:02:08;0.90;99.90
16976;DHT22;8604;48.148;-1.786;2022-12-07T05:04:37;0.80;99.90
16976;DHT22;8604;48.148;-1.786;2022-12-07T05:07:06;0.80;99.90
16976;DHT22;8604;48.148;-1.786;2022-12-07T05:09:34;0.80;99.90
16976;DHT22;8604;48.148;-1.786;2022-12-07T05:12:03;0.80;99.90
16976;DHT22;8604;48.148;-1.786;2022-12-07T05:14:33;0.80;99.90
16976;DHT22;8604;48.148;-1.786;2022-12-07T05:17:02;0.80;99.90
16976;DHT22;8604;48.148;-1.786;2022-12-07T05:19:31;0.80;99.90
16976;DHT22;8604;48.148;-1.786;2022-12-07T05:22:00;0.80;99.90
16976;DHT22;8604;48.148;-1.786;2022-12-07T05:24:28;0.80;99.90
16976;DHT22;8604;48.148;-1.786;2022-12-07T05:26:57;0.80;99.90
16976;DHT22;8604;48.148;-1.786;2022-12-07T05:29:26;0.80;99.90
16976;DHT22;8604;48.148;-1.786;2022-12-07T05:31:57;0.80;99.90
16976;DHT22;8604;48.148;-1.786;2022-12-07T05:34:26;0.80;99.90
16976;DHT22;8604;48.148;-1.786;2022-12-07T05:36:55;0.80;99.90
16976;DHT22;8604;48.148;-1.786;2022-12-07T05:39:23;0.80;99.90
16976;DHT22;8604;48.148;-1.786;2022-12-07T05:41:52;0.70;99.90
16976;DHT22;8604;48.148;-1.786;2022-12-07T05:44:38;0.60;99.90
16976;DHT22;8604;48.148;-1.786;2022-12-07T05:47:09;0.60;99.90
16976;DHT22;8604;48.148;-1.786;2022-12-07T05:49:38;0.60;99.90
16976;DHT22;8604;48.148;-1.786;2022-12-07T05:52:09;0.60;99.90
16976;DHT22;8604;48.148;-1.786;2022-12-07T05:54:38;0.50;99.90
16976;DHT22;8604;48.148;-1.786;2022-12-07T05:57:06;0.50;99.90
16976;DHT22;8604;48.148;-1.786;2022-12-07T05:59:35;0.50;99.90
16976;DHT22;8604;48.148;-1.786;2022-12-07T06:02:04;0.50;99.90
16976;DHT22;8604;48.148;-1.786;2022-12-07T06:04:41;0.50;99.90
16976;DHT22;8604;48.148;-1.786;2022-12-07T06:07:16;0.50;99.90
16976;DHT22;8604;48.148;-1.786;2022-12-07T06:09:45;0.50;99.90
16976;DHT22;8604;48.148;-1.786;2022-12-07T06:12:14;0.40;99.90
16976;DHT22;8604;48.148;-1.786;2022-12-07T06:15:00;0.40;99.90
16976;DHT22;8604;48.148;-1.786;2022-12-07T06:17:29;0.40;99.90
16976;DHT22;8604;48.148;-1.786;2022-12-07T06:19:59;0.40;99.90
16976;DHT22;8604;48.148;-1.786;2022-12-07T06:22:29;0.40;99.90
16976;DHT22;8604;48.148;-1.786;2022-12-07T06:25:01;0.50;99.90
16976;DHT22;8604;48.148;-1.786;2022-12-07T06:27:35;0.40;99.90
16976;DHT22;8604;48.148;-1.786;2022-12-07T06:30:05;0.50;99.90
16976;DHT22;8604;48.148;-1.786;2022-12-07T06:32:37;0.50;99.90
16976;DHT22;8604;48.148;-1.786;2022-12-07T06:35:11;0.50;99.90
16976;DHT22;8604;48.148;-1.786;2022-12-07T06:37:39;0.50;99.90
16976;DHT22;8604;48.148;-1.786;2022-12-07T06:40:09;0.50;99.90
16976;DHT22;8604;48.148;-1.786;2022-12-07T06:42:38;0.50;99.90
16976;DHT22;8604;48.148;-1.786;2022-12-07T22:30:48;1.30;99.90
16976;DHT22;8604;48.148;-1.786;2022-12-07T22:33:17;1.30;99.90
16976;DHT22;8604;48.148;-1.786;2022-12-07T22:35:51;1.30;99.90
16976;DHT22;8604;48.148;-1.786;2022-12-07T22:38:20;1.30;99.90
16976;DHT22;8604;48.148;-1.786;2022-12-07T22:40:48;1.30;99.90
16976;DHT22;8604;48.148;-1.786;2022-12-07T22:43:17;1.30;99.90
16976;DHT22;8604;48.148;-1.786;2022-12-07T22:45:54;1.30;99.90
16976;DHT22;8604;48.148;-1.786;2022-12-07T22:48:24;1.30;99.90
16976;DHT22;8604;48.148;-1.786;2022-12-07T22:50:54;1.30;99.90
16976;DHT22;8604;48.148;-1.786;2022-12-07T22:53:24;1.30;99.90
16976;DHT22;8604;48.148;-1.786;2022-12-07T22:55:53;1.30;99.90
16976;DHT22;8604;48.148;-1.786;2022-12-07T22:58:38;1.20;99.90
16976;DHT22;8604;48.148;-1.786;2022-12-07T23:01:08;1.30;99.90
16976;DHT22;8604;48.148;-1.786;2022-12-07T23:03:38;1.20;99.90
16976;DHT22;8604;48.148;-1.786;2022-12-07T23:08:41;1.20;99.90
16976;DHT22;8604;48.148;-1.786;2022-12-07T23:11:13;1.20;99.90
16976;DHT22;8604;48.148;-1.786;2022-12-07T23:14:11;1.30;99.90
16976;DHT22;8604;48.148;-1.786;2022-12-07T23:16:40;1.20;99.90
16976;DHT22;8604;48.148;-1.786;2022-12-07T23:19:23;1.30;99.90
16976;DHT22;8604;48.148;-1.786;2022-12-07T23:21:51;1.20;99.90
16976;DHT22;8604;48.148;-1.786;2022-12-07T23:24:20;1.20;99.90
16976;DHT22;8604;48.148;-1.786;2022-12-07T23:26:49;1.20;99.90
16976;DHT22;8604;48.148;-1.786;2022-12-07T23:29:18;1.20;99.90
16976;DHT22;8604;48.148;-1.786;2022-12-07T23:31:48;1.20;99.90
16976;DHT22;8604;48.148;-1.786;2022-12-07T23:34:20;1.20;99.90
16976;DHT22;8604;48.148;-1.786;2022-12-07T23:36:49;1.20;99.90
16976;DHT22;8604;48.148;-1.786;2022-12-07T23:39:17;1.20;99.90
16976;DHT22;8604;48.148;-1.786;2022-12-07T23:41:47;1.20;99.90
16976;DHT22;8604;48.148;-1.786;2022-12-07T23:44:16;1.20;99.90
16976;DHT22;8604;48.148;-1.786;2022-12-07T23:46:45;1.20;99.90
16976;DHT22;8604;48.148;-1.786;2022-12-07T23:49:15;1.20;99.90
16976;DHT22;8604;48.148;-1.786;2022-12-07T23:51:45;1.20;99.90
16976;DHT22;8604;48.148;-1.786;2022-12-07T23:54:13;1.20;99.90
16976;DHT22;8604;48.148;-1.786;2022-12-07T23:56:41;1.20;99.90
16976;DHT22;8604;48.148;-1.786;2022-12-07T23:59:10;1.20;99.90
